Terminal Aerodrome Forecast
Issued by NWS Charleston, WV

Current Version | Previous Version | Graphics & Text | Print | Product List | Glossary On
Versions: 1 2 3 4 5 6 7 8 9 10 11 12 13 14 15 16 17 18 19 20 21 22 23 24 25 26 27 28 29
729
FTUS41 KRLX 201525 AAA
TAFEKN
TAF AMD
KEKN 201525Z 2015/2112 15004KT P6SM -SHRA OVC035
     FM201800 22007KT P6SM BKN050
     FM210700 18002KT 4SM BR BKN035
     FM211000 19002KT 1SM BR SCT001 BKN040=

USA.gov is the U.S. government's official web portal to all federal, state and local government web resources and services.